< Cyclone 198802 1988 Season Cyclone 198804 >
Cyclone 198803 (GWENDA)
General InformationTrack Information on Google MapsList of All Images || ResourceGoogle EarthGE AnimationAtom FeedGeoJSON
Detalied Best Track (Time Zone = UTC)
Year Month Day Hour Lat. Long. Pressure (hPa) Wind (kt) Class Image Chart
1988 2 6 00 -12.7 109.0 1004 0 0 Image --
1988 2 6 06 -13.1 108.2 1002 0 0 Image --
1988 2 6 12 -13.4 107.5 1001 0 0 Image --
1988 2 6 18 -13.7 107.0 999 0 0 Image --
1988 2 7 00 -14.0 106.3 998 0 0 Image --
1988 2 7 06 -14.8 105.3 995 0 0 Image --
1988 2 7 12 -15.3 104.5 992 0 0 Image --
1988 2 7 18 -15.7 103.5 988 0 0 Image --
1988 2 8 00 -15.9 102.7 984 0 0 Image --
1988 2 8 06 -15.9 101.9 984 0 0 Image --
1988 2 8 12 -15.9 101.2 984 0 0 Image --
1988 2 8 18 -15.9 100.3 984 0 0 Image --
1988 2 9 00 -15.9 99.2 984 0 0 Image --
1988 2 9 06 -15.8 98.0 983 0 0 Image --
1988 2 9 12 -15.8 96.8 982 0 0 Image --
1988 2 9 18 -15.8 95.8 979 0 0 Image --
1988 2 10 00 -15.7 95.0 976 0 0 Image --
1988 2 10 06 -15.7 94.3 966 0 0 Image --
1988 2 10 12 -15.6 93.4 958 0 0 Image --
1988 2 10 18 -15.6 92.5 953 0 0 Image --
1988 2 11 00 -15.7 91.7 950 0 0 Image --
1988 2 11 06 -16.0 91.1 947 0 0 Image --
1988 2 11 12 -16.4 90.7 945 0 0 Image --
1988 2 11 18 -16.7 90.3 943 0 0 Image --
1988 2 12 00 -17.0 90.0 941 0 0 Image --
< Cyclone 198802 1988 Season Cyclone 198804 >

Help